sensor_id;sensor_type;location;lat;lon;timestamp;P1;durP1;ratioP1;P2;durP2;ratioP2
32196;SDS011;18697;42.770;23.400;2023-10-08T00:00:24;16.67;;;8.70;;
32196;SDS011;18697;42.770;23.400;2023-10-08T00:03:11;11.85;;;7.35;;
32196;SDS011;18697;42.770;23.400;2023-10-08T00:05:38;12.05;;;7.72;;
32196;SDS011;18697;42.770;23.400;2023-10-08T00:08:04;12.50;;;6.95;;
32196;SDS011;18697;42.770;23.400;2023-10-08T00:10:39;15.73;;;7.70;;
32196;SDS011;18697;42.770;23.400;2023-10-08T00:13:07;13.25;;;7.72;;
32196;SDS011;18697;42.770;23.400;2023-10-08T00:15:37;18.98;;;9.80;;
32196;SDS011;18697;42.770;23.400;2023-10-08T00:18:07;15.27;;;8.80;;
32196;SDS011;18697;42.770;23.400;2023-10-08T00:20:39;13.48;;;7.10;;
32196;SDS011;18697;42.770;23.400;2023-10-08T00:23:12;13.10;;;6.10;;
32196;SDS011;18697;42.770;23.400;2023-10-08T00:25:40;10.77;;;6.32;;
32196;SDS011;18697;42.770;23.400;2023-10-08T00:28:08;11.60;;;7.70;;
32196;SDS011;18697;42.770;23.400;2023-10-08T00:30:41;12.45;;;7.05;;
32196;SDS011;18697;42.770;23.400;2023-10-08T00:33:10;10.63;;;6.32;;
32196;SDS011;18697;42.770;23.400;2023-10-08T00:35:40;8.60;;;5.45;;
32196;SDS011;18697;42.770;23.400;2023-10-08T00:38:09;9.90;;;5.53;;
32196;SDS011;18697;42.770;23.400;2023-10-08T00:40:45;8.40;;;5.10;;
32196;SDS011;18697;42.770;23.400;2023-10-08T00:46:16;8.68;;;4.68;;
32196;SDS011;18697;42.770;23.400;2023-10-08T00:48:49;6.97;;;3.95;;
32196;SDS011;18697;42.770;23.400;2023-10-08T00:51:19;8.32;;;4.20;;
32196;SDS011;18697;42.770;23.400;2023-10-08T00:56:30;10.57;;;4.10;;
32196;SDS011;18697;42.770;23.400;2023-10-08T00:59:15;7.90;;;3.90;;
32196;SDS011;18697;42.770;23.400;2023-10-08T01:01:42;10.52;;;3.97;;
32196;SDS011;18697;42.770;23.400;2023-10-08T01:04:14;6.65;;;3.78;;
32196;SDS011;18697;42.770;23.400;2023-10-08T01:06:41;5.93;;;4.07;;
32196;SDS011;18697;42.770;23.400;2023-10-08T01:09:06;7.38;;;3.80;;
32196;SDS011;18697;42.770;23.400;2023-10-08T01:14:14;6.80;;;4.18;;
32196;SDS011;18697;42.770;23.400;2023-10-08T01:16:41;5.53;;;3.60;;
32196;SDS011;18697;42.770;23.400;2023-10-08T01:19:11;7.70;;;3.92;;
32196;SDS011;18697;42.770;23.400;2023-10-08T01:21:39;7.05;;;3.75;;
32196;SDS011;18697;42.770;23.400;2023-10-08T01:24:05;5.32;;;3.97;;
32196;SDS011;18697;42.770;23.400;2023-10-08T01:26:33;8.13;;;4.93;;
32196;SDS011;18697;42.770;23.400;2023-10-08T01:28:59;6.55;;;4.43;;
32196;SDS011;18697;42.770;23.400;2023-10-08T01:31:29;6.30;;;3.85;;
32196;SDS011;18697;42.770;23.400;2023-10-08T01:33:54;4.53;;;3.47;;
32196;SDS011;18697;42.770;23.400;2023-10-08T01:36:22;8.45;;;3.85;;
32196;SDS011;18697;42.770;23.400;2023-10-08T01:38:49;10.02;;;3.97;;
32196;SDS011;18697;42.770;23.400;2023-10-08T01:41:14;7.70;;;4.00;;
32196;SDS011;18697;42.770;23.400;2023-10-08T01:43:54;7.07;;;4.22;;
32196;SDS011;18697;42.770;23.400;2023-10-08T01:46:20;8.60;;;5.18;;
32196;SDS011;18697;42.770;23.400;2023-10-08T01:48:47;8.00;;;4.63;;
32196;SDS011;18697;42.770;23.400;2023-10-08T01:51:18;11.82;;;5.38;;
32196;SDS011;18697;42.770;23.400;2023-10-08T01:53:54;12.15;;;5.15;;
32196;SDS011;18697;42.770;23.400;2023-10-08T01:56:23;10.07;;;5.07;;
32196;SDS011;18697;42.770;23.400;2023-10-08T01:58:49;9.93;;;5.65;;
32196;SDS011;18697;42.770;23.400;2023-10-08T02:03:44;10.07;;;5.07;;
32196;SDS011;18697;42.770;23.400;2023-10-08T02:06:09;11.50;;;5.78;;
32196;SDS011;18697;42.770;23.400;2023-10-08T02:08:37;11.23;;;6.15;;
32196;SDS011;18697;42.770;23.400;2023-10-08T02:11:03;11.65;;;6.82;;
32196;SDS011;18697;42.770;23.400;2023-10-08T02:15:55;11.00;;;6.13;;
32196;SDS011;18697;42.770;23.400;2023-10-08T02:18:22;10.48;;;6.25;;
32196;SDS011;18697;42.770;23.400;2023-10-08T02:20:48;11.30;;;5.60;;
32196;SDS011;18697;42.770;23.400;2023-10-08T02:23:14;10.18;;;5.88;;
32196;SDS011;18697;42.770;23.400;2023-10-08T02:25:39;7.47;;;5.03;;
32196;SDS011;18697;42.770;23.400;2023-10-08T02:28:05;8.95;;;4.93;;
32196;SDS011;18697;42.770;23.400;2023-10-08T02:30:34;11.38;;;5.75;;
32196;SDS011;18697;42.770;23.400;2023-10-08T02:33:01;12.88;;;4.95;;
32196;SDS011;18697;42.770;23.400;2023-10-08T02:35:27;10.75;;;5.80;;
32196;SDS011;18697;42.770;23.400;2023-10-08T02:40:19;14.00;;;5.97;;
32196;SDS011;18697;42.770;23.400;2023-10-08T02:42:51;10.98;;;5.95;;
32196;SDS011;18697;42.770;23.400;2023-10-08T02:45:25;12.07;;;6.65;;
32196;SDS011;18697;42.770;23.400;2023-10-08T02:47:54;10.63;;;5.70;;
32196;SDS011;18697;42.770;23.400;2023-10-08T02:50:20;11.35;;;5.72;;
32196;SDS011;18697;42.770;23.400;2023-10-08T02:52:47;8.43;;;5.53;;
32196;SDS011;18697;42.770;23.400;2023-10-08T02:55:18;11.13;;;5.55;;
32196;SDS011;18697;42.770;23.400;2023-10-08T02:57:53;11.68;;;5.65;;
32196;SDS011;18697;42.770;23.400;2023-10-08T03:00:18;6.57;;;4.05;;
32196;SDS011;18697;42.770;23.400;2023-10-08T03:02:45;8.77;;;4.95;;
32196;SDS011;18697;42.770;23.400;2023-10-08T03:05:11;9.27;;;4.78;;
32196;SDS011;18697;42.770;23.400;2023-10-08T03:07:42;9.10;;;4.75;;
32196;SDS011;18697;42.770;23.400;2023-10-08T03:10:08;7.28;;;4.00;;
32196;SDS011;18697;42.770;23.400;2023-10-08T03:12:47;9.95;;;4.38;;
32196;SDS011;18697;42.770;23.400;2023-10-08T03:15:14;6.63;;;4.18;;
32196;SDS011;18697;42.770;23.400;2023-10-08T03:18:03;6.93;;;5.05;;
32196;SDS011;18697;42.770;23.400;2023-10-08T03:23:12;7.25;;;4.20;;
32196;SDS011;18697;42.770;23.400;2023-10-08T03:25:58;10.73;;;4.53;;
32196;SDS011;18697;42.770;23.400;2023-10-08T03:28:25;13.63;;;5.18;;
32196;SDS011;18697;42.770;23.400;2023-10-08T03:30:53;8.30;;;4.65;;
32196;SDS011;18697;42.770;23.400;2023-10-08T03:33:31;7.65;;;4.45;;
32196;SDS011;18697;42.770;23.400;2023-10-08T03:35:59;7.93;;;4.72;;
32196;SDS011;18697;42.770;23.400;2023-10-08T03:38:39;5.75;;;3.97;;
32196;SDS011;18697;42.770;23.400;2023-10-08T03:41:15;6.55;;;4.47;;
32196;SDS011;18697;42.770;23.400;2023-10-08T03:43:44;9.77;;;4.78;;
32196;SDS011;18697;42.770;23.400;2023-10-08T03:46:29;6.95;;;4.68;;
32196;SDS011;18697;42.770;23.400;2023-10-08T03:48:55;9.77;;;4.95;;
32196;SDS011;18697;42.770;23.400;2023-10-08T03:51:22;10.60;;;5.20;;
32196;SDS011;18697;42.770;23.400;2023-10-08T03:53:51;11.35;;;5.03;;
32196;SDS011;18697;42.770;23.400;2023-10-08T03:56:37;8.25;;;4.07;;
32196;SDS011;18697;42.770;23.400;2023-10-08T03:59:02;7.97;;;4.72;;
32196;SDS011;18697;42.770;23.400;2023-10-08T04:01:38;10.35;;;4.60;;
32196;SDS011;18697;42.770;23.400;2023-10-08T04:04:05;7.55;;;4.25;;
32196;SDS011;18697;42.770;23.400;2023-10-08T04:06:37;8.85;;;4.43;;
32196;SDS011;18697;42.770;23.400;2023-10-08T04:09:04;8.25;;;4.57;;
32196;SDS011;18697;42.770;23.400;2023-10-08T04:11:30;8.05;;;4.88;;
32196;SDS011;18697;42.770;23.400;2023-10-08T04:14:00;6.65;;;4.68;;
32196;SDS011;18697;42.770;23.400;2023-10-08T04:16:27;7.90;;;4.70;;
32196;SDS011;18697;42.770;23.400;2023-10-08T04:18:53;9.63;;;4.70;;
32196;SDS011;18697;42.770;23.400;2023-10-08T04:21:21;7.28;;;4.70;;
32196;SDS011;18697;42.770;23.400;2023-10-08T04:23:47;9.98;;;4.82;;
32196;SDS011;18697;42.770;23.400;2023-10-08T04:26:16;12.05;;;5.00;;
32196;SDS011;18697;42.770;23.400;2023-10-08T04:28:43;10.93;;;4.40;;
32196;SDS011;18697;42.770;23.400;2023-10-08T04:31:08;7.40;;;4.75;;
32196;SDS011;18697;42.770;23.400;2023-10-08T04:33:43;8.77;;;5.57;;
32196;SDS011;18697;42.770;23.400;2023-10-08T04:36:09;8.88;;;5.00;;
32196;SDS011;18697;42.770;23.400;2023-10-08T04:38:43;6.97;;;4.65;;
32196;SDS011;18697;42.770;23.400;2023-10-08T04:41:10;9.90;;;4.80;;
32196;SDS011;18697;42.770;23.400;2023-10-08T04:43:36;15.30;;;5.35;;
32196;SDS011;18697;42.770;23.400;2023-10-08T04:46:03;9.48;;;5.03;;
32196;SDS011;18697;42.770;23.400;2023-10-08T04:48:47;13.25;;;7.85;;
32196;SDS011;18697;42.770;23.400;2023-10-08T04:51:14;17.95;;;10.02;;
32196;SDS011;18697;42.770;23.400;2023-10-08T04:53:40;11.52;;;7.28;;
32196;SDS011;18697;42.770;23.400;2023-10-08T04:58:42;11.27;;;5.82;;
32196;SDS011;18697;42.770;23.400;2023-10-08T05:01:12;15.70;;;6.03;;
32196;SDS011;18697;42.770;23.400;2023-10-08T05:03:51;12.57;;;5.38;;
32196;SDS011;18697;42.770;23.400;2023-10-08T05:06:26;12.77;;;5.80;;
32196;SDS011;18697;42.770;23.400;2023-10-08T05:09:05;9.68;;;5.15;;
32196;SDS011;18697;42.770;23.400;2023-10-08T05:11:38;8.90;;;5.00;;
32196;SDS011;18697;42.770;23.400;2023-10-08T05:14:22;11.23;;;5.80;;
32196;SDS011;18697;42.770;23.400;2023-10-08T05:17:07;9.75;;;5.57;;
32196;SDS011;18697;42.770;23.400;2023-10-08T05:19:47;13.70;;;5.78;;
32196;SDS011;18697;42.770;23.400;2023-10-08T05:22:36;11.18;;;5.88;;
32196;SDS011;18697;42.770;23.400;2023-10-08T05:25:02;10.85;;;5.88;;
32196;SDS011;18697;42.770;23.400;2023-10-08T05:27:39;15.52;;;6.18;;
32196;SDS011;18697;42.770;23.400;2023-10-08T05:30:15;13.68;;;5.75;;
32196;SDS011;18697;42.770;23.400;2023-10-08T05:32:50;12.57;;;6.38;;
32196;SDS011;18697;42.770;23.400;2023-10-08T05:35:36;10.37;;;6.03;;
32196;SDS011;18697;42.770;23.400;2023-10-08T05:38:05;14.57;;;7.38;;
32196;SDS011;18697;42.770;23.400;2023-10-08T05:40:50;15.23;;;8.45;;
32196;SDS011;18697;42.770;23.400;2023-10-08T05:43:28;13.10;;;7.88;;
32196;SDS011;18697;42.770;23.400;2023-10-08T05:46:04;9.25;;;6.30;;
32196;SDS011;18697;42.770;23.400;2023-10-08T05:51:31;19.15;;;8.50;;
32196;SDS011;18697;42.770;23.400;2023-10-08T05:54:19;17.52;;;7.78;;
32196;SDS011;18697;42.770;23.400;2023-10-08T05:56:52;14.77;;;7.05;;
32196;SDS011;18697;42.770;23.400;2023-10-08T06:02:23;14.43;;;5.82;;
32196;SDS011;18697;42.770;23.400;2023-10-08T06:05:02;14.90;;;5.78;;
32196;SDS011;18697;42.770;23.400;2023-10-08T06:10:18;10.27;;;5.40;;
32196;SDS011;18697;42.770;23.400;2023-10-08T06:12:57;11.35;;;5.63;;
32196;SDS011;18697;42.770;23.400;2023-10-08T06:15:34;12.10;;;5.47;;
32196;SDS011;18697;42.770;23.400;2023-10-08T06:18:12;10.95;;;6.10;;
32196;SDS011;18697;42.770;23.400;2023-10-08T06:20:41;9.40;;;5.40;;
32196;SDS011;18697;42.770;23.400;2023-10-08T06:23:13;11.50;;;6.07;;
32196;SDS011;18697;42.770;23.400;2023-10-08T06:25:43;11.25;;;5.43;;
32196;SDS011;18697;42.770;23.400;2023-10-08T06:28:15;8.82;;;5.72;;
32196;SDS011;18697;42.770;23.400;2023-10-08T06:30:45;9.82;;;6.25;;
32196;SDS011;18697;42.770;23.400;2023-10-08T06:33:11;8.55;;;5.60;;
32196;SDS011;18697;42.770;23.400;2023-10-08T06:35:36;16.48;;;6.03;;
32196;SDS011;18697;42.770;23.400;2023-10-08T06:38:02;11.93;;;5.20;;
32196;SDS011;18697;42.770;23.400;2023-10-08T06:40:40;10.43;;;5.30;;
32196;SDS011;18697;42.770;23.400;2023-10-08T06:43:06;10.15;;;5.53;;
32196;SDS011;18697;42.770;23.400;2023-10-08T06:45:46;16.38;;;6.15;;
32196;SDS011;18697;42.770;23.400;2023-10-08T06:48:11;9.48;;;6.07;;
32196;SDS011;18697;42.770;23.400;2023-10-08T06:50:44;9.40;;;5.93;;
32196;SDS011;18697;42.770;23.400;2023-10-08T06:53:10;13.32;;;5.80;;
32196;SDS011;18697;42.770;23.400;2023-10-08T06:55:39;8.32;;;5.85;;
32196;SDS011;18697;42.770;23.400;2023-10-08T06:58:06;9.40;;;5.47;;
32196;SDS011;18697;42.770;23.400;2023-10-08T07:00:33;9.00;;;5.63;;
32196;SDS011;18697;42.770;23.400;2023-10-08T07:03:08;8.82;;;5.03;;
32196;SDS011;18697;42.770;23.400;2023-10-08T07:05:40;7.68;;;4.90;;
32196;SDS011;18697;42.770;23.400;2023-10-08T07:08:07;12.02;;;5.53;;
32196;SDS011;18697;42.770;23.400;2023-10-08T07:10:33;10.30;;;6.28;;
32196;SDS011;18697;42.770;23.400;2023-10-08T07:13:00;12.50;;;5.25;;
32196;SDS011;18697;42.770;23.400;2023-10-08T07:15:28;9.65;;;6.20;;
32196;SDS011;18697;42.770;23.400;2023-10-08T07:17:56;10.70;;;6.15;;
32196;SDS011;18697;42.770;23.400;2023-10-08T07:20:22;11.45;;;5.80;;
32196;SDS011;18697;42.770;23.400;2023-10-08T07:22:48;12.10;;;6.72;;
32196;SDS011;18697;42.770;23.400;2023-10-08T07:27:47;11.50;;;6.53;;
32196;SDS011;18697;42.770;23.400;2023-10-08T07:30:13;12.05;;;5.65;;
32196;SDS011;18697;42.770;23.400;2023-10-08T07:32:51;11.70;;;6.20;;
32196;SDS011;18697;42.770;23.400;2023-10-08T07:35:19;10.88;;;5.70;;
32196;SDS011;18697;42.770;23.400;2023-10-08T07:37:45;10.18;;;5.35;;
32196;SDS011;18697;42.770;23.400;2023-10-08T07:40:13;44.38;;;7.35;;
32196;SDS011;18697;42.770;23.400;2023-10-08T07:42:39;7.50;;;4.07;;
32196;SDS011;18697;42.770;23.400;2023-10-08T07:45:06;10.75;;;5.40;;
32196;SDS011;18697;42.770;23.400;2023-10-08T07:47:32;9.68;;;5.22;;
32196;SDS011;18697;42.770;23.400;2023-10-08T07:49:57;11.63;;;4.97;;
32196;SDS011;18697;42.770;23.400;2023-10-08T07:52:24;7.82;;;4.18;;
32196;SDS011;18697;42.770;23.400;2023-10-08T07:54:50;8.77;;;4.07;;
32196;SDS011;18697;42.770;23.400;2023-10-08T07:57:15;10.25;;;4.30;;
32196;SDS011;18697;42.770;23.400;2023-10-08T07:59:51;9.18;;;4.50;;
32196;SDS011;18697;42.770;23.400;2023-10-08T08:02:19;7.07;;;4.15;;
32196;SDS011;18697;42.770;23.400;2023-10-08T08:04:51;6.70;;;3.70;;
32196;SDS011;18697;42.770;23.400;2023-10-08T08:07:18;6.45;;;3.90;;
32196;SDS011;18697;42.770;23.400;2023-10-08T08:09:46;7.13;;;3.95;;
32196;SDS011;18697;42.770;23.400;2023-10-08T08:12:16;8.70;;;3.88;;
32196;SDS011;18697;42.770;23.400;2023-10-08T08:14:44;7.20;;;3.60;;
32196;SDS011;18697;42.770;23.400;2023-10-08T08:17:10;5.97;;;3.63;;
32196;SDS011;18697;42.770;23.400;2023-10-08T08:19:48;7.40;;;3.83;;
32196;SDS011;18697;42.770;23.400;2023-10-08T08:22:17;7.03;;;3.33;;
32196;SDS011;18697;42.770;23.400;2023-10-08T08:24:47;10.30;;;4.05;;
32196;SDS011;18697;42.770;23.400;2023-10-08T08:27:18;8.88;;;4.13;;
32196;SDS011;18697;42.770;23.400;2023-10-08T08:29:51;8.02;;;3.58;;
32196;SDS011;18697;42.770;23.400;2023-10-08T08:32:20;7.45;;;3.60;;
32196;SDS011;18697;42.770;23.400;2023-10-08T08:34:46;6.45;;;3.80;;
32196;SDS011;18697;42.770;23.400;2023-10-08T08:37:18;9.18;;;4.07;;
32196;SDS011;18697;42.770;23.400;2023-10-08T08:39:47;9.07;;;5.38;;
32196;SDS011;18697;42.770;23.400;2023-10-08T08:42:13;13.43;;;4.63;;
32196;SDS011;18697;42.770;23.400;2023-10-08T08:44:41;8.70;;;5.00;;
32196;SDS011;18697;42.770;23.400;2023-10-08T08:47:11;8.98;;;3.92;;
32196;SDS011;18697;42.770;23.400;2023-10-08T08:49:42;7.82;;;4.50;;
32196;SDS011;18697;42.770;23.400;2023-10-08T08:52:11;6.57;;;3.40;;
32196;SDS011;18697;42.770;23.400;2023-10-08T08:54:41;7.30;;;4.65;;
32196;SDS011;18697;42.770;23.400;2023-10-08T08:57:10;5.93;;;4.00;;
32196;SDS011;18697;42.770;23.400;2023-10-08T08:59:49;5.30;;;3.70;;
32196;SDS011;18697;42.770;23.400;2023-10-08T09:02:18;6.18;;;3.75;;
32196;SDS011;18697;42.770;23.400;2023-10-08T09:04:44;6.88;;;3.42;;
32196;SDS011;18697;42.770;23.400;2023-10-08T09:07:11;6.93;;;3.40;;
32196;SDS011;18697;42.770;23.400;2023-10-08T09:09:37;4.85;;;2.72;;
32196;SDS011;18697;42.770;23.400;2023-10-08T09:12:05;10.60;;;3.47;;
32196;SDS011;18697;42.770;23.400;2023-10-08T09:14:35;7.32;;;3.40;;
32196;SDS011;18697;42.770;23.400;2023-10-08T09:17:03;10.00;;;3.42;;
32196;SDS011;18697;42.770;23.400;2023-10-08T09:19:35;7.25;;;3.75;;
32196;SDS011;18697;42.770;23.400;2023-10-08T09:22:10;5.68;;;3.55;;
32196;SDS011;18697;42.770;23.400;2023-10-08T09:24:40;7.57;;;3.38;;
32196;SDS011;18697;42.770;23.400;2023-10-08T09:27:07;4.75;;;2.90;;
32196;SDS011;18697;42.770;23.400;2023-10-08T09:29:33;9.20;;;3.70;;
32196;SDS011;18697;42.770;23.400;2023-10-08T09:32:08;5.97;;;2.50;;
32196;SDS011;18697;42.770;23.400;2023-10-08T09:34:36;8.23;;;3.05;;
32196;SDS011;18697;42.770;23.400;2023-10-08T09:37:02;5.07;;;2.75;;
32196;SDS011;18697;42.770;23.400;2023-10-08T09:39:28;4.80;;;2.88;;
32196;SDS011;18697;42.770;23.400;2023-10-08T09:41:59;3.97;;;2.40;;
32196;SDS011;18697;42.770;23.400;2023-10-08T09:44:27;4.57;;;3.05;;
32196;SDS011;18697;42.770;23.400;2023-10-08T09:46:58;6.15;;;2.53;;
32196;SDS011;18697;42.770;23.400;2023-10-08T09:49:30;5.93;;;3.00;;
32196;SDS011;18697;42.770;23.400;2023-10-08T09:51:58;7.40;;;2.97;;
32196;SDS011;18697;42.770;23.400;2023-10-08T09:54:30;9.82;;;2.70;;
32196;SDS011;18697;42.770;23.400;2023-10-08T09:57:05;6.03;;;2.92;;
32196;SDS011;18697;42.770;23.400;2023-10-08T09:59:31;9.80;;;2.63;;
32196;SDS011;18697;42.770;23.400;2023-10-08T10:01:58;4.68;;;2.65;;
32196;SDS011;18697;42.770;23.400;2023-10-08T10:04:25;4.85;;;3.17;;
32196;SDS011;18697;42.770;23.400;2023-10-08T10:06:56;5.32;;;2.55;;
32196;SDS011;18697;42.770;23.400;2023-10-08T10:09:23;4.45;;;2.50;;
32196;SDS011;18697;42.770;23.400;2023-10-08T10:11:50;5.72;;;3.15;;
32196;SDS011;18697;42.770;23.400;2023-10-08T10:14:23;3.58;;;2.50;;
32196;SDS011;18697;42.770;23.400;2023-10-08T10:17:09;6.80;;;2.87;;
32196;SDS011;18697;42.770;23.400;2023-10-08T10:19:36;4.80;;;2.85;;
32196;SDS011;18697;42.770;23.400;2023-10-08T10:22:02;7.45;;;2.75;;
32196;SDS011;18697;42.770;23.400;2023-10-08T10:24:49;7.03;;;3.13;;
32196;SDS011;18697;42.770;23.400;2023-10-08T10:27:15;5.28;;;2.80;;
32196;SDS011;18697;42.770;23.400;2023-10-08T10:29:41;8.55;;;2.97;;
32196;SDS011;18697;42.770;23.400;2023-10-08T10:32:13;5.95;;;2.42;;
32196;SDS011;18697;42.770;23.400;2023-10-08T10:34:44;10.02;;;3.33;;
32196;SDS011;18697;42.770;23.400;2023-10-08T10:37:12;11.13;;;2.88;;
32196;SDS011;18697;42.770;23.400;2023-10-08T10:39:57;6.35;;;2.90;;
32196;SDS011;18697;42.770;23.400;2023-10-08T10:42:26;15.23;;;3.17;;
32196;SDS011;18697;42.770;23.400;2023-10-08T10:44:53;6.13;;;2.20;;
32196;SDS011;18697;42.770;23.400;2023-10-08T10:47:21;15.82;;;3.50;;
32196;SDS011;18697;42.770;23.400;2023-10-08T10:49:47;6.93;;;2.30;;
32196;SDS011;18697;42.770;23.400;2023-10-08T10:52:32;5.57;;;2.53;;
32196;SDS011;18697;42.770;23.400;2023-10-08T10:55:09;4.90;;;3.00;;
32196;SDS011;18697;42.770;23.400;2023-10-08T10:57:39;10.52;;;3.00;;
32196;SDS011;18697;42.770;23.400;2023-10-08T11:00:06;8.77;;;3.17;;
32196;SDS011;18697;42.770;23.400;2023-10-08T11:02:51;9.52;;;2.72;;
32196;SDS011;18697;42.770;23.400;2023-10-08T11:05:21;5.32;;;3.28;;
32196;SDS011;18697;42.770;23.400;2023-10-08T11:07:53;4.57;;;2.50;;
32196;SDS011;18697;42.770;23.400;2023-10-08T11:10:32;12.93;;;2.97;;
32196;SDS011;18697;42.770;23.400;2023-10-08T11:12:58;5.28;;;2.65;;
32196;SDS011;18697;42.770;23.400;2023-10-08T11:15:29;14.23;;;3.13;;
32196;SDS011;18697;42.770;23.400;2023-10-08T11:18:21;5.43;;;2.83;;
32196;SDS011;18697;42.770;23.400;2023-10-08T11:20:48;5.15;;;2.85;;
32196;SDS011;18697;42.770;23.400;2023-10-08T11:23:37;5.22;;;2.80;;
32196;SDS011;18697;42.770;23.400;2023-10-08T11:26:07;6.35;;;3.17;;
32196;SDS011;18697;42.770;23.400;2023-10-08T11:28:36;13.15;;;2.70;;
32196;SDS011;18697;42.770;23.400;2023-10-08T11:31:13;7.10;;;2.72;;
32196;SDS011;18697;42.770;23.400;2023-10-08T11:33:41;7.10;;;2.53;;
32196;SDS011;18697;42.770;23.400;2023-10-08T11:36:08;11.30;;;2.72;;
32196;SDS011;18697;42.770;23.400;2023-10-08T11:38:44;4.97;;;2.17;;
32196;SDS011;18697;42.770;23.400;2023-10-08T11:41:16;10.88;;;2.60;;
32196;SDS011;18697;42.770;23.400;2023-10-08T11:43:49;11.40;;;2.38;;
32196;SDS011;18697;42.770;23.400;2023-10-08T11:46:19;12.57;;;3.28;;
32196;SDS011;18697;42.770;23.400;2023-10-08T11:48:46;6.13;;;3.20;;
32196;SDS011;18697;42.770;23.400;2023-10-08T11:51:12;6.53;;;2.47;;
32196;SDS011;18697;42.770;23.400;2023-10-08T11:53:41;8.40;;;2.75;;
32196;SDS011;18697;42.770;23.400;2023-10-08T11:56:09;8.10;;;2.70;;
32196;SDS011;18697;42.770;23.400;2023-10-08T11:58:38;16.20;;;2.65;;
32196;SDS011;18697;42.770;23.400;2023-10-08T12:01:05;11.77;;;2.67;;
32196;SDS011;18697;42.770;23.400;2023-10-08T12:03:30;7.80;;;2.78;;
32196;SDS011;18697;42.770;23.400;2023-10-08T12:05:56;10.35;;;2.90;;
32196;SDS011;18697;42.770;23.400;2023-10-08T12:08:25;6.60;;;2.50;;
32196;SDS011;18697;42.770;23.400;2023-10-08T12:10:54;9.52;;;2.85;;
32196;SDS011;18697;42.770;23.400;2023-10-08T12:13:20;10.05;;;2.67;;
32196;SDS011;18697;42.770;23.400;2023-10-08T12:15:54;13.43;;;2.90;;
32196;SDS011;18697;42.770;23.400;2023-10-08T12:18:37;12.60;;;2.67;;
32196;SDS011;18697;42.770;23.400;2023-10-08T12:21:07;13.90;;;2.88;;
32196;SDS011;18697;42.770;23.400;2023-10-08T12:23:36;9.10;;;2.67;;
32196;SDS011;18697;42.770;23.400;2023-10-08T12:26:02;7.82;;;2.33;;
32196;SDS011;18697;42.770;23.400;2023-10-08T12:28:28;14.77;;;4.15;;
32196;SDS011;18697;42.770;23.400;2023-10-08T12:30:54;9.88;;;2.63;;
32196;SDS011;18697;42.770;23.400;2023-10-08T12:33:24;9.95;;;2.90;;
32196;SDS011;18697;42.770;23.400;2023-10-08T12:35:49;8.10;;;2.72;;
32196;SDS011;18697;42.770;23.400;2023-10-08T12:38:20;11.63;;;2.85;;
32196;SDS011;18697;42.770;23.400;2023-10-08T12:40:47;8.07;;;2.88;;
32196;SDS011;18697;42.770;23.400;2023-10-08T12:43:18;9.45;;;2.67;;
32196;SDS011;18697;42.770;23.400;2023-10-08T12:45:50;13.23;;;3.38;;
32196;SDS011;18697;42.770;23.400;2023-10-08T12:48:26;13.82;;;2.90;;
32196;SDS011;18697;42.770;23.400;2023-10-08T12:50:53;7.72;;;3.17;;
32196;SDS011;18697;42.770;23.400;2023-10-08T12:53:25;10.57;;;2.92;;
32196;SDS011;18697;42.770;23.400;2023-10-08T12:56:07;15.93;;;3.75;;
32196;SDS011;18697;42.770;23.400;2023-10-08T12:58:40;11.73;;;3.03;;
32196;SDS011;18697;42.770;23.400;2023-10-08T13:01:18;15.48;;;8.50;;
32196;SDS011;18697;42.770;23.400;2023-10-08T13:03:44;20.42;;;9.38;;
32196;SDS011;18697;42.770;23.400;2023-10-08T13:06:14;10.38;;;4.63;;
32196;SDS011;18697;42.770;23.400;2023-10-08T13:08:51;7.53;;;3.03;;
32196;SDS011;18697;42.770;23.400;2023-10-08T13:11:21;14.35;;;6.90;;
32196;SDS011;18697;42.770;23.400;2023-10-08T13:13:54;17.33;;;8.48;;
32196;SDS011;18697;42.770;23.400;2023-10-08T13:16:24;12.00;;;3.13;;
32196;SDS011;18697;42.770;23.400;2023-10-08T13:18:51;15.93;;;6.57;;
32196;SDS011;18697;42.770;23.400;2023-10-08T13:21:17;10.18;;;3.38;;
32196;SDS011;18697;42.770;23.400;2023-10-08T13:23:49;8.60;;;3.20;;
32196;SDS011;18697;42.770;23.400;2023-10-08T13:26:15;13.20;;;3.03;;
32196;SDS011;18697;42.770;23.400;2023-10-08T13:28:42;6.88;;;2.38;;
32196;SDS011;18697;42.770;23.400;2023-10-08T13:31:08;15.13;;;2.95;;
32196;SDS011;18697;42.770;23.400;2023-10-08T13:33:39;8.30;;;2.88;;
32196;SDS011;18697;42.770;23.400;2023-10-08T13:36:07;12.90;;;3.10;;
32196;SDS011;18697;42.770;23.400;2023-10-08T13:38:38;11.20;;;2.50;;
32196;SDS011;18697;42.770;23.400;2023-10-08T13:41:05;7.10;;;2.65;;
32196;SDS011;18697;42.770;23.400;2023-10-08T13:43:40;7.93;;;2.60;;
32196;SDS011;18697;42.770;23.400;2023-10-08T13:46:07;8.00;;;2.50;;
32196;SDS011;18697;42.770;23.400;2023-10-08T13:48:38;10.65;;;2.30;;
32196;SDS011;18697;42.770;23.400;2023-10-08T13:51:05;9.52;;;2.35;;
32196;SDS011;18697;42.770;23.400;2023-10-08T13:53:36;14.00;;;3.83;;
32196;SDS011;18697;42.770;23.400;2023-10-08T13:56:02;11.00;;;4.00;;
32196;SDS011;18697;42.770;23.400;2023-10-08T13:58:32;12.07;;;3.85;;
32196;SDS011;18697;42.770;23.400;2023-10-08T14:01:00;9.15;;;2.88;;
32196;SDS011;18697;42.770;23.400;2023-10-08T14:03:29;10.55;;;2.47;;
32196;SDS011;18697;42.770;23.400;2023-10-08T14:05:58;7.35;;;2.58;;
32196;SDS011;18697;42.770;23.400;2023-10-08T14:08:28;11.93;;;2.53;;
32196;SDS011;18697;42.770;23.400;2023-10-08T14:10:54;7.80;;;2.92;;
32196;SDS011;18697;42.770;23.400;2023-10-08T14:13:27;10.65;;;2.38;;
32196;SDS011;18697;42.770;23.400;2023-10-08T14:15:54;9.48;;;3.45;;
32196;SDS011;18697;42.770;23.400;2023-10-08T14:18:22;10.00;;;2.50;;
32196;SDS011;18697;42.770;23.400;2023-10-08T14:20:53;10.68;;;2.72;;
32196;SDS011;18697;42.770;23.400;2023-10-08T14:23:20;11.43;;;2.88;;
32196;SDS011;18697;42.770;23.400;2023-10-08T14:25:48;10.20;;;2.45;;
32196;SDS011;18697;42.770;23.400;2023-10-08T14:28:15;10.50;;;2.78;;
32196;SDS011;18697;42.770;23.400;2023-10-08T14:30:47;13.48;;;2.88;;
32196;SDS011;18697;42.770;23.400;2023-10-08T14:33:18;11.23;;;2.40;;
32196;SDS011;18697;42.770;23.400;2023-10-08T14:35:49;9.63;;;2.60;;
32196;SDS011;18697;42.770;23.400;2023-10-08T14:38:34;14.68;;;3.03;;
32196;SDS011;18697;42.770;23.400;2023-10-08T14:41:18;8.27;;;2.47;;
32196;SDS011;18697;42.770;23.400;2023-10-08T14:44:02;10.15;;;2.55;;
32196;SDS011;18697;42.770;23.400;2023-10-08T14:46:29;10.65;;;2.97;;
32196;SDS011;18697;42.770;23.400;2023-10-08T14:48:57;10.38;;;3.10;;
32196;SDS011;18697;42.770;23.400;2023-10-08T14:51:23;9.73;;;2.38;;
32196;SDS011;18697;42.770;23.400;2023-10-08T14:53:49;10.30;;;2.90;;
32196;SDS011;18697;42.770;23.400;2023-10-08T14:56:14;8.88;;;2.58;;
32196;SDS011;18697;42.770;23.400;2023-10-08T14:58:41;10.70;;;3.03;;
32196;SDS011;18697;42.770;23.400;2023-10-08T15:01:06;9.05;;;2.88;;
32196;SDS011;18697;42.770;23.400;2023-10-08T15:03:32;18.88;;;4.07;;
32196;SDS011;18697;42.770;23.400;2023-10-08T15:06:01;13.20;;;4.22;;
32196;SDS011;18697;42.770;23.400;2023-10-08T15:08:29;12.75;;;4.07;;
32196;SDS011;18697;42.770;23.400;2023-10-08T15:10:57;8.55;;;2.33;;
32196;SDS011;18697;42.770;23.400;2023-10-08T15:13:23;13.38;;;3.90;;
32196;SDS011;18697;42.770;23.400;2023-10-08T15:15:50;10.95;;;2.90;;
32196;SDS011;18697;42.770;23.400;2023-10-08T15:18:16;11.30;;;2.70;;